createdAt,value
2018-06-07T00:00:10.103Z,17.34
2018-06-07T00:02:39.507Z,17.17
2018-06-07T00:05:08.599Z,17.12
2018-06-07T00:07:37.690Z,17.02
2018-06-07T00:10:06.858Z,16.87
2018-06-07T00:12:35.942Z,17.15
2018-06-07T00:15:05.035Z,17.41
2018-06-07T00:17:34.122Z,17.16
2018-06-07T00:20:03.185Z,17.10
2018-06-07T00:22:32.251Z,17.14
2018-06-07T00:25:01.370Z,17.07
2018-06-07T00:27:30.661Z,16.97
2018-06-07T00:29:59.727Z,16.95
2018-06-07T00:32:28.889Z,16.90
2018-06-07T00:34:57.982Z,16.91
2018-06-07T00:37:27.086Z,17.02
2018-06-07T00:39:56.166Z,16.96
2018-06-07T00:42:25.299Z,17.02
2018-06-07T00:44:54.376Z,17.02
2018-06-07T00:47:23.431Z,17.09
2018-06-07T00:49:52.609Z,17.16
2018-06-07T00:52:21.711Z,16.96
2018-06-07T00:54:50.878Z,16.80
2018-06-07T00:57:20.699Z,16.77
2018-06-07T00:59:49.833Z,16.79
2018-06-07T01:02:18.995Z,16.79
2018-06-07T01:04:48.102Z,16.84
2018-06-07T01:07:17.215Z,16.85
2018-06-07T01:09:47.002Z,16.90
2018-06-07T01:12:16.073Z,16.97
2018-06-07T01:14:45.211Z,16.99
2018-06-07T01:17:14.307Z,17.06
2018-06-07T01:19:43.374Z,17.13
2018-06-07T01:22:12.430Z,17.19
2018-06-07T01:24:42.552Z,17.33
2018-06-07T01:27:12.251Z,17.50
2018-06-07T01:29:58.416Z,17.55
2018-06-07T01:33:00.647Z,17.55
2018-06-07T01:35:29.730Z,17.55
2018-06-07T01:38:15.739Z,17.55
2018-06-07T01:40:44.846Z,17.53
2018-06-07T01:43:13.916Z,17.53
2018-06-07T01:45:42.987Z,17.70
2018-06-07T01:48:12.141Z,17.83
2018-06-07T01:50:41.274Z,17.95
2018-06-07T01:53:10.394Z,18.02
2018-06-07T01:55:39.542Z,18.03
2018-06-07T01:58:08.620Z,18.12
2018-06-07T02:00:38.503Z,18.38
2018-06-07T02:03:07.598Z,18.34
2018-06-07T02:05:36.691Z,18.38
2018-06-07T02:08:06.447Z,18.32
2018-06-07T02:10:35.530Z,18.22
2018-06-07T02:13:04.687Z,18.01
2018-06-07T02:15:33.819Z,17.80
2018-06-07T02:18:02.935Z,17.80
2018-06-07T02:20:32.003Z,17.62
2018-06-07T02:23:01.134Z,17.50
2018-06-07T02:25:30.207Z,17.50
2018-06-07T02:27:59.328Z,17.69
2018-06-07T02:30:28.438Z,17.69
2018-06-07T02:32:57.554Z,17.72
2018-06-07T02:35:26.655Z,17.61
2018-06-07T02:37:56.649Z,17.56
2018-06-07T02:40:26.407Z,17.50
2018-06-07T02:42:55.543Z,17.41
2018-06-07T02:45:24.662Z,17.59
2018-06-07T02:47:53.803Z,17.58
2018-06-07T02:50:22.886Z,17.73
2018-06-07T02:52:52.883Z,17.80
2018-06-07T02:55:21.959Z,17.91
2018-06-07T02:57:51.035Z,17.91
2018-06-07T03:00:20.152Z,17.93
2018-06-07T03:02:50.047Z,18.05
2018-06-07T03:05:19.134Z,17.99
2018-06-07T03:07:48.259Z,17.96
2018-06-07T03:10:17.333Z,18.06
2018-06-07T03:12:46.418Z,18.20
2018-06-07T03:15:15.543Z,18.18
2018-06-07T03:17:44.615Z,18.16
2018-06-07T03:20:13.694Z,18.22
2018-06-07T03:22:43.603Z,18.19
2018-06-07T03:25:12.698Z,18.20
2018-06-07T03:27:41.759Z,18.08
2018-06-07T03:30:10.897Z,18.26
2018-06-07T03:32:39.983Z,18.31
2018-06-07T03:35:09.066Z,18.21
2018-06-07T03:37:38.178Z,18.30
2018-06-07T03:40:08.022Z,18.28
2018-06-07T03:42:37.190Z,18.27
2018-06-07T03:45:06.322Z,18.26
2018-06-07T03:47:35.446Z,18.25
2018-06-07T03:50:05.342Z,18.35
2018-06-07T03:52:34.472Z,18.16
2018-06-07T03:55:03.573Z,18.25
2018-06-07T03:57:32.656Z,18.30
2018-06-07T04:00:01.782Z,18.38
2018-06-07T04:02:30.844Z,18.39
2018-06-07T04:05:00.715Z,18.45
2018-06-07T04:07:29.796Z,18.56
2018-06-07T04:09:58.891Z,18.51
2018-06-07T04:12:27.967Z,18.44
2018-06-07T04:14:57.063Z,18.45
2018-06-07T04:17:26.160Z,18.42
2018-06-07T04:19:55.261Z,18.48
2018-06-07T04:22:24.363Z,18.63
2018-06-07T04:24:53.466Z,18.79
2018-06-07T04:27:22.563Z,18.95
2018-06-07T04:29:52.450Z,19.30
2018-06-07T04:32:21.591Z,19.51
2018-06-07T04:34:50.683Z,19.52
2018-06-07T04:37:19.759Z,19.70
2018-06-07T04:39:48.894Z,20.14
2018-06-07T04:42:18.362Z,20.56
2018-06-07T04:44:47.443Z,20.67
2018-06-07T04:47:16.768Z,20.37
2018-06-07T04:49:45.835Z,20.43
2018-06-07T04:52:14.935Z,21.07
2018-06-07T04:54:44.254Z,21.71
2018-06-07T04:57:13.395Z,22.44
2018-06-07T04:59:43.427Z,22.62
2018-06-07T05:02:13.286Z,22.35
2018-06-07T05:04:42.381Z,22.61
2018-06-07T05:07:11.543Z,22.74
2018-06-07T05:09:40.695Z,22.74
2018-06-07T05:12:10.430Z,22.70
2018-06-07T05:14:39.554Z,22.85
2018-06-07T05:17:08.639Z,22.85
2018-06-07T05:19:37.771Z,22.90
2018-06-07T05:22:11.722Z,23.39
2018-06-07T05:24:40.911Z,23.34
2018-06-07T05:27:10.139Z,23.71
2018-06-07T05:29:39.871Z,24.36
2018-06-07T05:32:09.010Z,24.49
2018-06-07T05:34:38.055Z,25.37
2018-06-07T05:37:07.335Z,25.68
2018-06-07T05:39:36.451Z,26.57
2018-06-07T05:42:06.194Z,26.19
2018-06-07T05:44:35.671Z,26.33
2018-06-07T05:47:05.472Z,26.64
2018-06-07T05:49:35.313Z,27.15
2018-06-07T05:52:04.985Z,27.84
2018-06-07T05:54:34.175Z,28.14
2018-06-07T05:57:03.251Z,27.49
2018-06-07T05:59:32.381Z,27.62
2018-06-07T06:02:01.668Z,26.92
2018-06-07T06:04:31.934Z,26.86
2018-06-07T06:07:01.086Z,27.32
2018-06-07T06:09:30.235Z,28.36
2018-06-07T06:11:59.319Z,28.92
2018-06-07T06:14:28.429Z,29.43
2018-06-07T06:16:57.506Z,29.93
2018-06-07T06:19:26.579Z,29.74
2018-06-07T06:21:56.450Z,28.49
2018-06-07T06:24:25.619Z,29.57
2018-06-07T06:26:55.532Z,29.03
2018-06-07T06:29:24.705Z,30.30
2018-06-07T06:31:53.753Z,30.93
2018-06-07T06:34:22.848Z,30.62
2018-06-07T06:36:52.119Z,29.50
2018-06-07T06:39:21.719Z,29.46
2018-06-07T06:41:52.051Z,28.04
2018-06-07T06:44:21.146Z,29.49
2018-06-07T06:46:50.830Z,30.35
2018-06-07T06:49:20.603Z,30.10
2018-06-07T06:51:50.563Z,31.33
2018-06-07T06:54:20.390Z,30.61
2018-06-07T06:56:50.132Z,29.70
2018-06-07T06:59:19.391Z,29.07
2018-06-07T07:01:49.278Z,29.35
2018-06-07T07:04:18.496Z,28.86
2018-06-07T07:06:47.986Z,28.89
2018-06-07T07:09:17.115Z,28.76
2018-06-07T07:11:46.374Z,27.45
2018-06-07T07:14:15.690Z,26.89
2018-06-07T07:16:45.146Z,27.78
2018-06-07T07:19:14.530Z,28.16
2018-06-07T07:21:44.443Z,28.09
2018-06-07T07:24:13.603Z,27.18
2018-06-07T07:26:42.720Z,25.58
2018-06-07T07:29:11.800Z,25.74
2018-06-07T07:31:40.887Z,26.71
2018-06-07T07:34:10.235Z,26.62
2018-06-07T07:36:39.953Z,26.30
2018-06-07T07:39:09.751Z,26.78
2018-06-07T07:41:38.883Z,27.43
2018-06-07T07:44:07.950Z,27.37
2018-06-07T07:46:37.038Z,26.20
2018-06-07T07:49:06.164Z,26.88
2018-06-07T07:51:35.500Z,26.28
2018-06-07T07:54:04.776Z,27.52
2018-06-07T07:56:33.854Z,28.37
2018-06-07T07:59:02.930Z,29.04
2018-06-07T08:01:32.227Z,27.89
2018-06-07T08:04:01.380Z,28.09
2018-06-07T08:06:30.456Z,28.36
2018-06-07T08:08:59.613Z,27.47
2018-06-07T08:11:28.949Z,26.23
2018-06-07T08:13:58.638Z,25.46
2018-06-07T08:16:27.891Z,26.61
2018-06-07T08:18:57.094Z,26.79
2018-06-07T08:21:26.462Z,26.28
2018-06-07T08:23:55.855Z,27.14
2018-06-07T08:26:25.191Z,27.45
2018-06-07T08:28:54.310Z,27.55
2018-06-07T08:31:23.523Z,27.06
2018-06-07T08:33:53.101Z,25.87
2018-06-07T08:36:23.227Z,27.21
2018-06-07T08:38:52.498Z,27.61
2018-06-07T08:41:21.663Z,27.55
2018-06-07T08:43:51.197Z,26.87
2018-06-07T08:46:20.314Z,27.34
2018-06-07T08:48:49.381Z,28.58
2018-06-07T08:51:18.562Z,29.06
2018-06-07T08:53:49.122Z,29.31
2018-06-07T08:56:18.354Z,27.18
2018-06-07T08:58:48.307Z,28.72
2018-06-07T09:01:17.456Z,28.42
2018-06-07T09:03:46.723Z,27.81
2018-06-07T09:06:15.822Z,28.21
2018-06-07T09:08:45.053Z,28.48
2018-06-07T09:11:14.278Z,29.03
2018-06-07T09:13:44.990Z,29.85
2018-06-07T09:16:14.137Z,30.43
2018-06-07T09:18:43.247Z,31.30
2018-06-07T09:21:12.387Z,29.76
2018-06-07T09:23:41.492Z,31.82
2018-06-07T09:26:10.683Z,32.94
2018-06-07T09:28:39.802Z,32.95
2018-06-07T09:31:08.939Z,33.75
2018-06-07T09:33:38.829Z,33.27
2018-06-07T09:36:07.966Z,33.90
2018-06-07T09:38:37.035Z,33.79
2018-06-07T09:41:06.731Z,32.97
2018-06-07T09:43:35.839Z,33.38
2018-06-07T09:46:05.094Z,32.64
2018-06-07T09:48:34.247Z,32.20
2018-06-07T09:51:04.695Z,31.52
2018-06-07T09:53:34.091Z,30.66
2018-06-07T09:56:04.522Z,30.69
2018-06-07T09:58:33.632Z,31.15
2018-06-07T10:01:02.975Z,31.24
2018-06-07T10:03:33.047Z,31.67
2018-06-07T10:06:02.534Z,32.14
2018-06-07T10:08:31.898Z,31.66
2018-06-07T10:11:01.029Z,30.96
2018-06-07T10:13:30.307Z,30.98
2018-06-07T10:15:59.994Z,31.19
2018-06-07T10:18:29.083Z,29.73
2018-06-07T10:20:58.251Z,30.06
2018-06-07T10:23:27.351Z,29.58
2018-06-07T10:25:56.450Z,30.63
2018-06-07T10:28:26.047Z,31.99
2018-06-07T10:30:55.155Z,32.04
2018-06-07T10:33:24.499Z,32.38
2018-06-07T10:35:55.034Z,32.70
2018-06-07T10:38:24.238Z,32.53
2018-06-07T10:40:53.386Z,32.70
2018-06-07T10:43:22.565Z,32.34
2018-06-07T10:45:52.067Z,32.55
2018-06-07T10:48:21.562Z,29.75
2018-06-07T10:50:50.711Z,29.66
2018-06-07T10:53:21.080Z,29.74
2018-06-07T10:55:50.610Z,29.86
2018-06-07T10:58:20.126Z,29.75
2018-06-07T11:00:49.660Z,29.74
2018-06-07T11:03:19.803Z,30.48
2018-06-07T11:05:49.537Z,32.10
2018-06-07T11:08:19.766Z,32.14
2018-06-07T11:10:48.967Z,30.56
2018-06-07T11:13:18.335Z,29.46
2018-06-07T11:15:48.834Z,29.42
2018-06-07T11:18:18.792Z,30.40
2018-06-07T11:20:48.057Z,30.64
2018-06-07T11:23:17.178Z,31.15
2018-06-07T11:25:46.295Z,32.21
2018-06-07T11:28:15.422Z,32.29
2018-06-07T11:30:44.934Z,33.11
2018-06-07T11:33:14.307Z,33.55
2018-06-07T11:35:44.295Z,33.79
2018-06-07T11:38:14.031Z,34.51
2018-06-07T11:40:43.195Z,35.34
2018-06-07T11:43:12.263Z,35.43
2018-06-07T11:45:41.535Z,33.99
2018-06-07T11:48:11.076Z,35.50
2018-06-07T11:50:40.323Z,36.03
2018-06-07T11:53:10.235Z,34.56
2018-06-07T11:55:40.700Z,34.36
2018-06-07T11:58:09.840Z,32.33
2018-06-07T12:00:38.986Z,30.86
2018-06-07T12:03:09.000Z,32.53
2018-06-07T12:05:38.153Z,33.78
2018-06-07T12:08:07.402Z,33.76
2018-06-07T12:10:36.500Z,36.39
2018-06-07T12:13:06.123Z,38.84
2018-06-07T12:15:35.259Z,37.62
2018-06-07T12:18:04.851Z,36.39
2018-06-07T12:20:34.182Z,36.07
2018-06-07T12:23:03.527Z,35.22
2018-06-07T12:25:33.389Z,34.98
2018-06-07T12:28:02.879Z,34.85
2018-06-07T12:30:32.359Z,32.57
2018-06-07T12:33:01.543Z,32.24
2018-06-07T12:35:30.786Z,31.68
2018-06-07T12:38:02.160Z,31.69
2018-06-07T12:40:31.369Z,31.76
2018-06-07T12:43:00.399Z,31.35
2018-06-07T12:45:29.479Z,31.48
2018-06-07T12:47:58.567Z,30.91
2018-06-07T12:50:28.324Z,31.19
2018-06-07T12:52:57.718Z,30.96
2018-06-07T12:55:26.855Z,31.80
2018-06-07T12:57:55.938Z,32.70
2018-06-07T13:00:25.020Z,34.62
2018-06-07T13:02:54.930Z,37.42
2018-06-07T13:05:24.706Z,37.80
2018-06-07T13:07:53.995Z,36.99
2018-06-07T13:10:23.399Z,35.50
2018-06-07T13:12:52.470Z,35.35
2018-06-07T13:15:21.570Z,35.07
2018-06-07T13:17:52.122Z,34.62
2018-06-07T13:20:21.622Z,32.65
2018-06-07T13:22:50.715Z,32.78
2018-06-07T13:25:20.264Z,31.70
2018-06-07T13:27:49.449Z,31.29
2018-06-07T13:30:18.679Z,31.39
2018-06-07T13:32:48.371Z,30.80
2018-06-07T13:35:17.467Z,30.98
2018-06-07T13:37:46.606Z,29.42
2018-06-07T13:40:16.331Z,29.81
2018-06-07T13:42:45.572Z,30.02
2018-06-07T13:45:15.338Z,29.22
2018-06-07T13:47:45.284Z,28.88
2018-06-07T13:50:16.336Z,27.73
2018-06-07T13:52:45.474Z,27.83
2018-06-07T13:55:14.887Z,28.28
2018-06-07T13:57:44.071Z,28.98
2018-06-07T14:00:13.133Z,30.30
2018-06-07T14:02:42.239Z,30.70
2018-06-07T14:05:11.400Z,30.88
2018-06-07T14:07:40.483Z,31.30
2018-06-07T14:10:09.586Z,31.13
2018-06-07T14:12:38.671Z,33.02
2018-06-07T14:15:08.459Z,34.81
2018-06-07T14:17:37.705Z,34.07
2018-06-07T14:20:06.790Z,32.57
2018-06-07T14:22:35.713Z,31.99
2018-06-07T14:25:04.918Z,32.17
2018-06-07T14:27:33.996Z,31.87
2018-06-07T14:30:03.087Z,32.30
2018-06-07T14:32:32.192Z,33.22
2018-06-07T14:35:01.279Z,34.28
2018-06-07T14:37:30.362Z,34.96
2018-06-07T14:39:59.608Z,35.91
2018-06-07T14:42:28.551Z,33.19
2018-06-07T14:44:57.636Z,31.72
2018-06-07T14:47:26.802Z,31.80
2018-06-07T14:49:55.899Z,32.26
2018-06-07T14:52:25.751Z,32.37
2018-06-07T14:54:54.906Z,33.27
2018-06-07T14:57:23.974Z,33.47
2018-06-07T14:59:53.063Z,32.27
2018-06-07T15:02:22.179Z,32.70
2018-06-07T15:04:51.282Z,32.70
2018-06-07T15:07:20.362Z,35.02
2018-06-07T15:09:49.614Z,34.95
2018-06-07T15:12:19.151Z,35.24
2018-06-07T15:14:48.239Z,33.19
2018-06-07T15:17:18.282Z,31.18
2018-06-07T15:19:47.555Z,32.27
2018-06-07T15:22:16.686Z,30.57
2018-06-07T15:24:45.818Z,29.30
2018-06-07T15:27:14.915Z,28.12
2018-06-07T15:29:44.003Z,28.09
2018-06-07T15:32:13.126Z,28.24
2018-06-07T15:34:42.206Z,28.22
2018-06-07T15:37:12.099Z,28.86
2018-06-07T15:39:41.210Z,29.57
2018-06-07T15:42:10.299Z,29.30
2018-06-07T15:44:39.438Z,29.48
2018-06-07T15:47:08.914Z,29.06
2018-06-07T15:49:38.550Z,28.59
2018-06-07T15:52:08.047Z,28.37
2018-06-07T15:54:37.154Z,29.43
2018-06-07T15:57:07.076Z,30.22
2018-06-07T15:59:36.200Z,31.74
2018-06-07T16:02:05.283Z,32.33
2018-06-07T16:04:34.362Z,32.64
2018-06-07T16:07:04.006Z,32.51
2018-06-07T16:09:33.801Z,32.18
2018-06-07T16:12:03.608Z,31.46
2018-06-07T16:14:32.731Z,31.23
2018-06-07T16:17:02.079Z,30.61
2018-06-07T16:19:31.423Z,28.96
2018-06-07T16:22:00.731Z,28.25
2018-06-07T16:24:30.307Z,28.90
2018-06-07T16:26:59.482Z,28.95
2018-06-07T16:29:28.651Z,28.36
2018-06-07T16:31:57.919Z,28.05
2018-06-07T16:34:27.014Z,28.04
2018-06-07T16:36:56.484Z,28.20
2018-06-07T16:39:25.574Z,27.50
2018-06-07T16:41:54.778Z,27.14
2018-06-07T16:44:24.246Z,26.79
2018-06-07T16:46:53.347Z,27.20
2018-06-07T16:49:22.458Z,26.89
2018-06-07T16:51:52.455Z,26.79
2018-06-07T16:54:21.638Z,26.94
2018-06-07T16:56:52.010Z,26.92
2018-06-07T16:59:21.098Z,26.75
2018-06-07T17:01:50.322Z,26.67
2018-06-07T17:04:19.448Z,26.28
2018-06-07T17:06:48.606Z,26.05
2018-06-07T17:09:19.383Z,26.06
2018-06-07T17:11:48.454Z,26.07
2018-06-07T17:14:17.627Z,25.68
2018-06-07T17:16:47.423Z,25.59
2018-06-07T17:19:16.506Z,25.53
2018-06-07T17:21:45.606Z,25.58
2018-06-07T17:24:14.791Z,25.35
2018-06-07T17:26:43.859Z,25.26
2018-06-07T17:29:12.939Z,25.17
2018-06-07T17:31:43.317Z,25.17
2018-06-07T17:34:12.677Z,25.15
2018-06-07T17:36:41.803Z,25.03
2018-06-07T17:39:11.342Z,24.81
2018-06-07T17:41:41.022Z,24.44
2018-06-07T17:44:10.272Z,24.01
2018-06-07T17:46:39.808Z,23.64
2018-06-07T17:49:10.308Z,22.89
2018-06-07T17:51:39.752Z,20.92
2018-06-07T17:54:09.722Z,19.14
2018-06-07T17:56:38.976Z,17.91
2018-06-07T17:59:08.527Z,17.21
2018-06-07T18:01:37.809Z,16.92
2018-06-07T18:04:07.211Z,16.50
2018-06-07T18:06:36.848Z,16.54
2018-06-07T18:09:09.030Z,16.27
2018-06-07T18:11:38.215Z,16.00
2018-06-07T18:14:07.309Z,15.74
2018-06-07T18:16:36.407Z,15.76
2018-06-07T18:19:05.847Z,15.96
2018-06-07T18:21:35.441Z,15.97
2018-06-07T18:24:04.530Z,16.02
2018-06-07T18:26:33.683Z,16.14
2018-06-07T18:29:02.791Z,16.17
2018-06-07T18:31:32.636Z,16.20
2018-06-07T18:34:01.798Z,16.21
2018-06-07T18:36:30.875Z,16.42
2018-06-07T18:39:01.475Z,16.63
2018-06-07T18:41:31.554Z,16.80
2018-06-07T18:44:01.093Z,16.97
2018-06-07T18:46:30.379Z,17.05
2018-06-07T18:48:59.614Z,17.08
2018-06-07T18:51:29.850Z,17.11
2018-06-07T18:53:58.998Z,17.09
2018-06-07T18:56:28.110Z,16.88
2018-06-07T18:58:57.562Z,16.55
2018-06-07T19:01:26.867Z,16.45
2018-06-07T19:03:56.038Z,16.59
2018-06-07T19:06:25.705Z,16.61
2018-06-07T19:09:00.299Z,16.54
2018-06-07T19:11:29.542Z,16.46
2018-06-07T19:14:03.968Z,16.48
2018-06-07T19:16:33.104Z,16.48
2018-06-07T19:19:07.500Z,16.50
2018-06-07T19:21:37.419Z,16.57
2018-06-07T19:24:07.268Z,16.57
2018-06-07T19:26:43.259Z,16.58
2018-06-07T19:29:13.663Z,16.58
2018-06-07T19:31:48.798Z,16.56
2018-06-07T19:34:23.675Z,16.54
2018-06-07T19:36:53.632Z,16.52
2018-06-07T19:39:27.978Z,16.62
2018-06-07T19:42:04.654Z,16.76
2018-06-07T19:44:33.832Z,16.78
2018-06-07T19:47:04.186Z,16.75
2018-06-07T19:49:33.318Z,16.81
2018-06-07T19:52:02.570Z,16.74
2018-06-07T19:54:31.847Z,16.78
2018-06-07T19:57:01.753Z,16.85
2018-06-07T19:59:31.484Z,16.77
2018-06-07T20:02:00.747Z,16.79
2018-06-07T20:04:29.943Z,16.79
2018-06-07T20:06:59.435Z,16.71
2018-06-07T20:09:28.728Z,16.74
2018-06-07T20:11:58.338Z,16.61
2018-06-07T20:14:27.467Z,16.52
2018-06-07T20:16:56.562Z,16.42
2018-06-07T20:19:25.747Z,16.59
2018-06-07T20:21:55.180Z,16.59
2018-06-07T20:24:25.074Z,16.59
2018-06-07T20:26:54.214Z,16.67
2018-06-07T20:29:24.003Z,16.70
2018-06-07T20:31:53.076Z,16.74
2018-06-07T20:34:22.334Z,16.72
2018-06-07T20:36:51.483Z,16.73
2018-06-07T20:39:20.799Z,16.65
2018-06-07T20:41:51.019Z,16.61
2018-06-07T20:44:20.984Z,16.58
2018-06-07T20:46:50.271Z,16.64
2018-06-07T20:49:19.514Z,16.70
2018-06-07T20:51:48.611Z,16.94
2018-06-07T20:54:17.735Z,16.78
2018-06-07T20:56:47.318Z,16.61
2018-06-07T20:59:16.551Z,17.03
2018-06-07T21:01:46.379Z,17.39
2018-06-07T21:04:15.675Z,17.43
2018-06-07T21:06:44.975Z,17.80
2018-06-07T21:09:14.782Z,17.56
2018-06-07T21:11:44.379Z,17.77
2018-06-07T21:14:13.503Z,17.71
2018-06-07T21:16:42.574Z,17.47
2018-06-07T21:19:11.682Z,17.76
2018-06-07T21:21:40.802Z,17.81
2018-06-07T21:24:11.770Z,18.02
2018-06-07T21:26:41.206Z,17.67
2018-06-07T21:29:10.491Z,17.27
2018-06-07T21:31:39.588Z,17.24
2018-06-07T21:34:08.706Z,17.03
2018-06-07T21:36:37.799Z,16.84
2018-06-07T21:39:09.374Z,16.82
2018-06-07T21:41:38.502Z,17.10
2018-06-07T21:44:08.532Z,16.84
2018-06-07T21:46:38.840Z,16.36
2018-06-07T21:49:08.108Z,16.29
2018-06-07T21:51:37.278Z,16.42
2018-06-07T21:54:06.545Z,16.03
2018-06-07T21:56:35.572Z,15.79
2018-06-07T21:59:05.483Z,15.72
2018-06-07T22:01:35.415Z,15.75
2018-06-07T22:04:04.982Z,15.86
2018-06-07T22:06:34.235Z,15.86
2018-06-07T22:09:03.945Z,15.76
2018-06-07T22:11:33.740Z,15.75
2018-06-07T22:14:03.021Z,16.06
2018-06-07T22:16:32.395Z,16.22
2018-06-07T22:19:02.298Z,16.05
2018-06-07T22:21:31.439Z,15.70
2018-06-07T22:24:01.255Z,15.53
2018-06-07T22:26:30.399Z,15.57
2018-06-07T22:28:59.483Z,15.53
2018-06-07T22:31:28.554Z,15.57
2018-06-07T22:33:57.650Z,15.71
2018-06-07T22:36:26.731Z,15.89
2018-06-07T22:38:55.843Z,15.74
2018-06-07T22:41:30.581Z,15.59
2018-06-07T22:43:59.743Z,15.54
2018-06-07T22:46:28.915Z,15.53
2018-06-07T22:48:58.022Z,15.40
2018-06-07T22:51:27.962Z,15.41
2018-06-07T22:53:57.074Z,15.47
2018-06-07T22:56:26.159Z,15.37
2018-06-07T22:58:55.299Z,15.34
2018-06-07T23:01:24.391Z,15.28
2018-06-07T23:03:54.179Z,15.18
2018-06-07T23:06:23.303Z,15.18
2018-06-07T23:08:52.408Z,15.17
2018-06-07T23:11:21.475Z,15.12
2018-06-07T23:13:50.566Z,15.28
2018-06-07T23:16:19.642Z,15.27
2018-06-07T23:18:48.763Z,15.09
2018-06-07T23:21:17.920Z,14.97
2018-06-07T23:23:47.015Z,15.04
2018-06-07T23:26:16.112Z,15.03
2018-06-07T23:28:45.242Z,15.00
2018-06-07T23:31:14.338Z,15.28
2018-06-07T23:33:43.426Z,15.14
2018-06-07T23:36:12.622Z,14.96
2018-06-07T23:38:42.283Z,15.02
2018-06-07T23:41:11.446Z,14.93
2018-06-07T23:43:40.527Z,15.07
2018-06-07T23:46:09.599Z,15.24
2018-06-07T23:48:38.719Z,15.44
2018-06-07T23:51:07.810Z,15.39
2018-06-07T23:53:36.882Z,15.38
2018-06-07T23:56:05.995Z,15.56
2018-06-07T23:58:35.144Z,15.54
